Time;durP1;ratioP1;P1;durP2;ratioP2;P2;SDS_P1;SDS_P2;PMS_P1;PMS_P2;Temp;Humidity;BMP_temperature;BMP_pressure;BME280_temperature;BME280_humidity;BME280_pressure;Samples;Min_cycle;Max_cycle;Signal;HPM_P1;HPM_P2
2023/08/25 00:00:31;;;;;;;3.33;2.63;;;;;;;23.53;100.00;100406.75;4985206;28;20046;-76
2023/08/25 00:02:56;;;;;;;2.33;1.95;;;;;;;22.99;100.00;100305.22;4986383;28;20046;-77
2023/08/25 00:05:22;;;;;;;1.70;1.60;;;;;;;23.50;100.00;100398.88;4986551;28;20027;-77
2023/08/25 00:07:48;;;;;;;2.53;2.33;;;;;;;23.52;100.00;100411.25;4981519;28;20054;-78
2023/08/25 00:10:14;;;;;;;2.25;1.90;;;;;;;23.60;100.00;100413.53;4981956;28;20499;-79
2023/08/25 00:12:39;;;;;;;1.05;0.60;;;;;;;23.36;100.00;100376.38;4986583;28;20042;-77
2023/08/25 00:15:05;;;;;;;1.63;1.50;;;;;;;23.16;100.00;100333.78;4990878;28;20364;-76
2023/08/25 00:17:32;;;;;;;2.63;2.42;;;;;;;23.57;100.00;100382.38;4977671;28;20185;-75
2023/08/25 00:19:58;;;;;;;2.35;2.20;;;;;;;23.51;100.00;100373.84;4989573;28;20026;-73
2023/08/25 00:22:24;;;;;;;2.17;2.00;;;;;;;22.97;100.00;100320.47;4988780;28;20069;-76
2023/08/25 00:24:50;;;;;;;1.17;1.08;;;;;;;22.71;100.00;100284.38;4986276;28;20129;-75
2023/08/25 00:27:15;;;;;;;2.00;1.88;;;;;;;23.24;100.00;100385.09;4976298;28;20062;-76
2023/08/25 00:29:41;;;;;;;1.33;1.20;;;;;;;23.58;100.00;100426.16;4989641;28;20529;-76
2023/08/25 00:32:06;;;;;;;0.57;0.57;;;;;;;23.20;100.00;100369.25;4990657;28;20038;-75
2023/08/25 00:34:32;;;;;;;2.15;1.58;;;;;;;22.87;100.00;100316.53;4992486;28;20046;-75
2023/08/25 00:36:59;;;;;;;1.55;1.45;;;;;;;23.49;100.00;100411.44;4983892;28;20398;-75
2023/08/25 00:39:24;;;;;;;4.57;2.22;;;;;;;23.38;100.00;100405.78;4988856;28;20741;-75
2023/08/25 00:41:49;;;;;;;1.75;1.63;;;;;;;23.03;100.00;100335.38;4987913;28;20054;-75
2023/08/25 00:44:15;;;;;;;3.65;2.22;;;;;;;22.80;100.00;100291.06;4989033;28;20141;-75
2023/08/25 00:46:40;;;;;;;1.15;1.08;;;;;;;23.15;100.00;100365.00;4988862;28;20070;-75
2023/08/25 00:49:06;;;;;;;3.17;2.20;;;;;;;23.14;100.00;100365.97;4989696;28;20077;-75
2023/08/25 00:51:32;;;;;;;0.80;0.80;;;;;;;22.89;100.00;100293.25;4988202;28;20050;-76
2023/08/25 00:53:57;;;;;;;1.83;1.67;;;;;;;22.90;100.00;100277.13;4989030;28;20046;-75
2023/08/25 00:56:23;;;;;;;1.10;0.65;;;;;;;23.67;100.00;100406.00;4985059;28;20540;-75
2023/08/25 00:58:49;;;;;;;1.67;1.58;;;;;;;23.52;100.00;100400.53;4989400;28;20053;-74
2023/08/25 01:01:17;;;;;;;1.80;1.65;;;;;;;22.67;100.00;100315.78;4989209;28;20105;-74
2023/08/25 01:03:44;;;;;;;2.03;1.55;;;;;;;23.21;100.00;100390.59;4985273;28;20054;-73
2023/08/25 01:06:09;;;;;;;2.08;1.98;;;;;;;23.45;100.00;100393.78;4988618;28;20060;-75
2023/08/25 01:08:35;;;;;;;1.15;1.05;;;;;;;23.51;100.00;100396.13;5019653;28;20034;-76
2023/08/25 01:11:17;;;;;;;0.65;0.65;;;;;;;23.02;100.00;100293.50;4978223;28;20038;-75
2023/08/25 01:13:58;;;;;;;1.63;1.02;;;;;;;23.75;100.00;100403.81;4988378;28;20042;-75
2023/08/25 01:16:34;;;;;;;0.80;0.77;;;;;;;23.68;100.00;100399.72;4987591;28;20065;-75
2023/08/25 01:19:03;;;;;;;1.20;1.10;;;;;;;23.08;100.00;100307.41;4989263;28;20088;-74
2023/08/25 01:21:34;;;;;;;1.23;1.10;;;;;;;23.62;100.00;100403.56;4979846;28;20062;-74
2023/08/25 01:24:13;;;;;;;2.05;1.80;;;;;;;23.17;100.00;100314.94;4983928;28;20076;-74
2023/08/25 01:26:38;;;;;;;1.05;0.95;;;;;;;23.64;100.00;100388.28;4988646;28;20534;-76
2023/08/25 01:29:04;;;;;;;3.55;2.22;;;;;;;23.17;100.00;100312.25;4988098;28;20065;-75
2023/08/25 01:31:29;;;;;;;1.58;1.48;;;;;;;23.56;100.00;100380.69;4988929;28;20068;-74
2023/08/25 01:33:56;;;;;;;2.35;2.05;;;;;;;23.23;100.00;100332.50;4987440;28;20116;-76
2023/08/25 01:36:22;;;;;;;0.57;0.57;;;;;;;23.32;100.00;100342.72;4983638;28;20494;-74
2023/08/25 01:39:01;;;;;;;1.48;1.35;;;;;;;23.68;100.00;100395.22;4988240;28;20573;-74
2023/08/25 01:41:44;;;;;;;1.13;0.93;;;;;;;22.98;100.00;100279.38;4986441;28;20066;-74
2023/08/25 01:44:16;;;;;;;1.30;0.63;;;;;;;23.00;100.00;100287.38;4988616;28;20060;-74
2023/08/25 01:46:44;;;;;;;2.28;1.55;;;;;;;23.56;100.00;100390.53;4989170;28;20054;-76
2023/08/25 01:49:13;;;;;;;1.50;1.40;;;;;;;23.54;100.00;100393.28;4984187;28;20060;-74
2023/08/25 01:51:39;;;;;;;0.80;0.77;;;;;;;22.90;100.00;100281.59;4982070;28;20150;-76
2023/08/25 01:54:04;;;;;;;5.70;2.90;;;;;;;22.80;100.00;100305.28;4980609;28;20042;-75
2023/08/25 01:56:30;;;;;;;1.92;1.75;;;;;;;22.68;100.00;100297.91;4969138;28;20059;-75
2023/08/25 01:58:55;;;;;;;0.85;0.73;;;;;;;22.67;100.00;100278.31;4969544;28;20149;-74
2023/08/25 02:01:21;;;;;;;6.28;3.35;;;;;;;23.39;100.00;100378.91;4984145;28;20046;-74
2023/08/25 02:03:46;;;;;;;0.77;0.77;;;;;;;22.83;100.00;100290.88;4980026;28;20073;-73
2023/08/25 02:06:12;;;;;;;0.82;0.52;;;;;;;23.43;100.00;100408.22;4988020;28;20537;-74
2023/08/25 02:08:38;;;;;;;2.05;1.88;;;;;;;22.79;100.00;100283.97;4987902;28;20121;-74
2023/08/25 02:11:04;;;;;;;2.15;2.05;;;;;;;22.92;100.00;100322.50;4984244;28;20729;-75
2023/08/25 02:13:30;;;;;;;4.20;3.10;;;;;;;22.66;100.00;100283.75;4987211;28;20768;-74
2023/08/25 02:15:55;;;;;;;2.78;1.83;;;;;;;22.72;100.00;100302.16;5019586;28;20494;-76
2023/08/25 02:18:21;;;;;;;2.08;1.83;;;;;;;23.25;100.00;100410.94;4987184;28;20047;-76
2023/08/25 02:20:46;;;;;;;0.65;0.65;;;;;;;23.08;100.00;100393.03;4985740;28;20210;-76
2023/08/25 02:23:12;;;;;;;1.42;1.33;;;;;;;22.44;100.00;100327.66;4988829;28;20034;-76
2023/08/25 02:25:37;;;;;;;1.75;1.55;;;;;;;22.27;100.00;100338.34;4999541;28;20134;-78
2023/08/25 02:28:03;;;;;;;2.85;0.55;;;;;;;22.72;100.00;100414.53;4985734;28;20043;-75
2023/08/25 02:30:29;;;;;;;2.50;1.58;;;;;;;22.64;100.00;100398.88;4986565;28;20089;-76
2023/08/25 02:32:57;;;;;;;0.60;0.60;;;;;;;22.90;100.00;100432.31;4980054;28;20057;-75
2023/08/25 02:35:23;;;;;;;3.55;3.25;;;;;;;22.48;100.00;100323.03;4985643;28;20122;-73
2023/08/25 02:38:05;;;;;;;0.63;0.50;;;;;;;22.37;100.00;100334.25;4987231;28;20070;-74
2023/08/25 02:40:32;;;;;;;1.70;1.50;;;;;;;22.32;100.00;100323.78;4985747;28;20108;-76
2023/08/25 02:43:00;;;;;;;1.13;1.02;;;;;;;22.52;100.00;100322.78;4987152;28;20062;-76
2023/08/25 02:45:27;;;;;;;0.50;0.50;;;;;;;23.17;100.00;100429.19;4982198;28;20077;-75
2023/08/25 02:47:53;;;;;;;2.38;2.25;;;;;;;23.24;100.00;100427.91;4980523;28;20104;-74
2023/08/25 02:50:19;;;;;;;1.60;1.05;;;;;;;23.01;100.00;100410.38;4988478;28;20085;-76
2023/08/25 02:52:45;;;;;;;0.68;0.63;;;;;;;22.64;100.00;100355.19;4985853;28;20054;-73
2023/08/25 02:55:16;;;;;;;1.05;0.98;;;;;;;23.03;100.00;100434.41;4984645;28;20406;-75
2023/08/25 02:57:45;;;;;;;1.98;1.88;;;;;;;22.52;100.00;100330.81;4985654;28;20101;-75
2023/08/25 03:00:16;;;;;;;2.78;1.52;;;;;;;23.04;100.00;100431.66;4987079;28;20046;-76
2023/08/25 03:02:41;;;;;;;1.67;1.50;;;;;;;22.97;100.00;100436.41;4986234;28;20057;-76
2023/08/25 03:05:09;;;;;;;1.13;0.95;;;;;;;22.97;100.00;100408.78;4987856;28;20121;-75
2023/08/25 03:07:34;;;;;;;1.20;1.10;;;;;;;22.67;100.00;100345.19;4987317;28;20046;-75
2023/08/25 03:10:00;;;;;;;0.85;0.85;;;;;;;22.64;100.00;100342.69;4986636;28;20070;-74
2023/08/25 03:12:29;;;;;;;4.10;1.85;;;;;;;22.44;100.00;100316.09;4985483;28;20699;-76
2023/08/25 03:14:55;;;;;;;7.35;1.05;;;;;;;22.92;100.00;100416.16;4984997;28;20631;-74
2023/08/25 03:17:22;;;;;;;1.35;1.25;;;;;;;23.04;100.00;100425.41;4981212;28;20030;-74
2023/08/25 03:19:48;;;;;;;3.20;2.92;;;;;;;22.64;100.00;100358.75;4986833;28;20482;-74
2023/08/25 03:22:13;;;;;;;1.80;1.67;;;;;;;22.58;100.00;100342.13;4986659;28;20069;-75
2023/08/25 03:24:39;;;;;;;3.33;2.47;;;;;;;22.84;100.00;100394.31;4984701;28;20445;-74
2023/08/25 03:27:04;;;;;;;1.85;1.70;;;;;;;22.63;100.00;100367.69;4984680;28;20042;-73
2023/08/25 03:29:33;;;;;;;1.10;0.85;;;;;;;23.08;100.00;100454.63;4983856;28;20041;-74
2023/08/25 03:31:59;;;;;;;1.65;1.55;;;;;;;23.05;100.00;100470.84;4985222;28;20506;-75
2023/08/25 03:34:24;;;;;;;3.72;3.38;;;;;;;23.10;100.00;100465.25;4986744;28;20093;-75
2023/08/25 03:36:50;;;;;;;1.40;1.30;;;;;;;23.18;100.00;100474.63;4986399;28;20181;-75
2023/08/25 03:39:15;;;;;;;1.50;1.40;;;;;;;23.27;100.00;100480.44;4986530;28;20162;-76
2023/08/25 03:41:41;;;;;;;2.45;2.25;;;;;;;22.99;100.00;100441.69;4983991;28;20033;-76
2023/08/25 03:44:06;;;;;;;3.95;1.75;;;;;;;23.30;100.00;100482.97;4980389;28;20066;-75
2023/08/25 03:46:32;;;;;;;1.20;1.10;;;;;;;22.68;100.00;100416.47;4985650;28;20084;-75
2023/08/25 03:48:58;;;;;;;0.82;0.73;;;;;;;22.16;100.00;100365.56;4986142;28;20050;-75
2023/08/25 03:51:24;;;;;;;4.00;3.63;;;;;;;22.82;100.00;100479.13;4981222;28;20507;-75
2023/08/25 03:53:49;;;;;;;4.03;1.95;;;;;;;22.86;100.00;100503.00;4975717;28;20826;-73
2023/08/25 03:56:15;;;;;;;1.70;1.58;;;;;;;22.91;100.00;100508.09;4961481;28;20055;-75
2023/08/25 03:58:40;;;;;;;2.95;2.65;;;;;;;22.89;100.00;100516.19;4975919;28;20069;-73
2023/08/25 04:01:06;;;;;;;1.15;1.05;;;;;;;22.92;100.00;100494.66;4982875;28;20659;-74
2023/08/25 04:03:31;;;;;;;1.25;1.15;;;;;;;22.51;100.00;100438.72;4980802;28;20677;-73
2023/08/25 04:05:57;;;;;;;1.20;1.10;;;;;;;22.72;100.00;100514.38;4984946;28;20053;-74
2023/08/25 04:08:23;;;;;;;1.65;1.25;;;;;;;22.16;100.00;100436.84;4986002;28;20064;-73
2023/08/25 04:10:48;;;;;;;3.70;2.25;;;;;;;22.34;100.00;100466.28;4981028;28;20641;-75
2023/08/25 04:13:14;;;;;;;1.33;1.23;;;;;;;22.91;100.00;100534.88;4983769;28;20534;-74
2023/08/25 04:15:39;;;;;;;0.93;0.93;;;;;;;22.58;100.00;100441.97;4984762;28;20073;-73
2023/08/25 04:18:05;;;;;;;1.63;1.52;;;;;;;23.22;100.00;100550.28;4985278;28;20592;-74
2023/08/25 04:20:32;;;;;;;2.60;1.55;;;;;;;22.45;100.00;100443.50;4981275;28;20107;-74
2023/08/25 04:23:01;;;;;;;0.52;0.52;;;;;;;22.61;100.00;100454.31;4985722;28;20144;-74
2023/08/25 04:25:28;;;;;;;1.35;1.00;;;;;;;22.73;100.00;100483.13;4982796;28;20518;-74
2023/08/25 04:27:54;;;;;;;0.95;0.80;;;;;;;22.89;100.00;100491.25;4975418;28;20042;-73
2023/08/25 04:30:22;;;;;;;1.13;1.02;;;;;;;22.90;100.00;100477.81;4985366;28;20529;-74
2023/08/25 04:32:49;;;;;;;2.30;1.30;;;;;;;23.35;100.00;100531.81;4984239;28;20092;-74
2023/08/25 04:35:14;;;;;;;1.75;1.42;;;;;;;23.32;100.00;100558.72;4982629;28;20514;-73
2023/08/25 04:37:40;;;;;;;2.45;2.25;;;;;;;22.30;100.00;100379.13;4980393;28;20153;-74
2023/08/25 04:40:06;;;;;;;1.15;0.80;;;;;;;23.30;100.00;100555.28;4981183;28;20410;-74
2023/08/25 04:42:31;;;;;;;1.85;1.75;;;;;;;23.48;100.00;100540.91;4983555;28;20158;-74
2023/08/25 04:44:57;;;;;;;2.47;2.28;;;;;;;23.58;100.00;100544.88;4982985;28;20129;-74
2023/08/25 04:47:23;;;;;;;1.83;1.73;;;;;;;22.89;100.00;100445.78;4986459;28;20371;-74
2023/08/25 04:49:49;;;;;;;1.95;1.85;;;;;;;23.66;100.00;100548.97;4984671;28;20126;-74
2023/08/25 04:52:14;;;;;;;1.25;1.13;;;;;;;23.39;100.00;100503.94;4979507;28;20159;-74
2023/08/25 04:54:40;;;;;;;1.50;1.40;;;;;;;23.66;100.00;100548.97;4981677;28;20112;-75
2023/08/25 04:57:06;;;;;;;0.80;0.65;;;;;;;23.31;100.00;100466.81;4983975;28;20046;-75
2023/08/25 04:59:31;;;;;;;2.30;2.10;;;;;;;22.96;100.00;100382.97;4986320;28;20045;-75
2023/08/25 05:01:56;;;;;;;1.52;1.42;;;;;;;23.75;100.00;100532.44;4987459;28;20080;-75
2023/08/25 05:04:22;;;;;;;1.88;1.77;;;;;;;23.49;100.00;100481.06;4987254;28;20085;-74
2023/08/25 05:06:49;;;;;;;2.15;1.30;;;;;;;23.91;100.00;100527.13;4987799;28;20061;-75
2023/08/25 05:09:14;;;;;;;4.97;2.80;;;;;;;23.65;100.00;100458.81;4984447;28;20054;-74
2023/08/25 05:11:41;;;;;;;3.53;0.95;;;;;;;24.15;100.00;100567.84;4986910;28;20324;-74
2023/08/25 05:14:07;;;;;;;2.65;1.50;;;;;;;23.72;100.00;100470.94;4987271;28;20058;-74
2023/08/25 05:16:32;;;;;;;0.38;0.38;;;;;;;23.60;100.00;100459.06;4988258;28;20066;-75
2023/08/25 05:18:58;;;;;;;1.35;1.00;;;;;;;24.41;100.00;100578.00;4988820;28;20050;-74
2023/08/25 05:21:23;;;;;;;1.88;1.77;;;;;;;24.28;100.00;100520.63;4988140;28;20042;-74
2023/08/25 05:23:53;;;;;;;1.50;1.30;;;;;;;24.77;100.00;100565.31;4960253;28;20046;-74
2023/08/25 05:26:18;;;;;;;2.42;2.22;;;;;;;24.75;100.00;100538.59;4974797;28;20050;-75
2023/08/25 05:28:44;;;;;;;3.05;2.00;;;;;;;25.02;100.00;100500.34;4982783;28;20075;-74
2023/08/25 05:31:09;;;;;;;0.90;0.80;;;;;;;25.85;100.00;100461.28;4988004;28;20054;-75
2023/08/25 05:33:35;;;;;;;0.90;0.77;;;;;;;26.43;100.00;100445.06;4980540;28;20105;-75
2023/08/25 05:36:02;;;;;;;3.95;3.60;;;;;;;27.66;100.00;100528.41;4988821;28;20053;-75
2023/08/25 05:38:27;;;;;;;2.92;2.72;;;;;;;28.16;100.00;100524.00;4988360;28;20049;-75
2023/08/25 05:40:53;;;;;;;2.63;1.92;;;;;;;27.26;100.00;100455.72;4980669;28;20035;-75
2023/08/25 05:43:18;;;;;;;2.40;2.20;;;;;;;28.09;100.00;100439.91;4996647;28;20499;-74
2023/08/25 05:45:44;;;;;;;0.82;0.82;;;;;;;28.05;100.00;100502.31;4988175;28;20050;-74
2023/08/25 05:48:09;;;;;;;0.80;0.77;;;;;;;27.79;100.00;100529.25;4988408;28;20049;-74
2023/08/25 05:50:35;;;;;;;0.45;0.43;;;;;;;27.15;100.00;100537.22;4988688;28;20097;-74
2023/08/25 05:53:01;;;;;;;1.55;1.10;;;;;;;27.13;100.00;100531.06;4988270;28;20034;-74
2023/08/25 05:55:27;;;;;;;1.90;1.30;;;;;;;26.21;100.00;100529.84;4980737;28;20576;-75
2023/08/25 05:57:52;;;;;;;3.95;2.28;;;;;;;26.77;100.00;100511.03;4988101;28;20038;-74
2023/08/25 06:00:18;;;;;;;0.75;0.75;;;;;;;26.97;100.00;100522.31;4986357;28;20042;-74
2023/08/25 06:02:44;;;;;;;3.33;2.63;;;;;;;27.23;100.00;100507.97;4987828;28;20050;-74
2023/08/25 06:05:09;;;;;;;0.73;0.73;;;;;;;27.45;100.00;100501.13;4987187;28;20484;-74
2023/08/25 06:07:35;;;;;;;3.60;3.03;;;;;;;28.23;100.00;100495.59;4987729;28;20088;-74
2023/08/25 06:10:00;;;;;;;2.70;0.98;;;;;;;29.04;100.00;100510.34;4979428;28;20506;-73
2023/08/25 06:12:26;;;;;;;1.98;0.65;;;;;;;29.36;100.00;100504.31;4987978;28;20034;-73
2023/08/25 06:14:52;;;;;;;1.73;1.63;;;;;;;28.77;100.00;100408.78;4985422;28;20057;-74
2023/08/25 06:17:17;;;;;;;1.25;1.15;;;;;;;29.26;100.00;100509.56;4978783;28;20650;-74
2023/08/25 06:19:43;;;;;;;1.98;1.67;;;;;;;28.59;100.00;100429.09;4978239;28;20557;-74
2023/08/25 06:22:10;;;;;;;0.82;0.82;;;;;;;27.64;100.00;100436.00;4982907;28;20049;-74
2023/08/25 06:24:36;;;;;;;1.40;1.30;;;;;;;27.65;100.00;100523.97;5014016;28;20536;-74
2023/08/25 06:27:02;;;;;;;2.58;2.30;;;;;;;27.70;100.00;100508.38;4986092;28;20046;-73
2023/08/25 06:29:29;;;;;;;0.63;0.63;;;;;;;27.96;100.00;100418.38;4987852;28;20093;-74
2023/08/25 06:31:56;;;;;;;2.20;1.90;;;;;;;28.16;100.00;100427.69;4988850;28;20040;-75
2023/08/25 06:34:21;;;;;;;2.03;1.85;;;;;;;28.36;100.00;100441.59;5015573;28;20081;-74
2023/08/25 06:36:47;;;;;;;2.10;1.83;;;;;;;27.82;100.00;100520.13;4982486;28;20043;-75
2023/08/25 06:39:12;;;;;;;6.78;3.05;;;;;;;27.01;100.00;100511.22;4982428;28;20050;-74
2023/08/25 06:41:38;;;;;;;0.70;0.70;;;;;;;26.63;100.00;100401.56;4987699;28;20049;-74
2023/08/25 06:44:03;;;;;;;1.42;1.05;;;;;;;27.90;100.00;100444.94;4982598;28;20038;-74
2023/08/25 06:46:29;;;;;;;0.88;0.82;;;;;;;27.11;100.00;100454.88;4987091;28;20054;-74
2023/08/25 06:48:54;;;;;;;1.80;1.70;;;;;;;27.76;100.00;100516.84;4983966;28;20052;-74
2023/08/25 06:51:20;;;;;;;0.82;0.75;;;;;;;27.95;100.00;100524.53;4985173;28;20061;-74
2023/08/25 06:53:45;;;;;;;1.60;1.50;;;;;;;27.68;100.00;100508.47;4986140;28;20074;-73
2023/08/25 06:56:11;;;;;;;1.35;1.10;;;;;;;28.08;100.00;100545.28;4977803;28;20050;-75
2023/08/25 06:58:36;;;;;;;3.28;1.73;;;;;;;28.16;100.00;100526.69;4977145;28;20034;-74
2023/08/25 07:01:02;;;;;;;2.90;2.03;;;;;;;28.11;100.00;100540.50;4972738;28;20450;-75
2023/08/25 07:03:28;;;;;;;1.20;1.10;;;;;;;26.98;100.00;100422.56;4976276;28;20046;-76
2023/08/25 07:05:58;;;;;;;2.65;2.05;;;;;;;27.63;100.00;100513.31;4984940;28;20224;-77
2023/08/25 07:08:25;;;;;;;0.68;0.50;;;;;;;28.17;100.00;100534.69;4979437;28;20489;-74
2023/08/25 07:10:50;;;;;;;3.45;1.83;;;;;;;27.93;100.00;100521.13;4982916;28;20402;-79
2023/08/25 07:13:16;;;;;;;1.80;1.42;;;;;;;27.31;100.00;100464.34;4986870;28;20152;-77
2023/08/25 07:15:42;;;;;;;0.68;0.68;;;;;;;26.71;100.00;100460.28;4987500;28;20046;-70
2023/08/25 07:18:08;;;;;;;0.30;0.30;;;;;;;26.88;100.00;100469.94;4983125;28;20041;-70
2023/08/25 07:20:33;;;;;;;3.70;1.20;;;;;;;27.34;100.00;100545.81;4982796;28;20038;-70
2023/08/25 07:22:59;;;;;;;1.15;1.02;;;;;;;27.59;100.00;100541.47;4987709;28;20747;-70
2023/08/25 07:25:24;;;;;;;1.90;1.80;;;;;;;27.63;100.00;100531.31;4981615;28;20403;-70
2023/08/25 07:27:50;;;;;;;3.00;2.15;;;;;;;27.72;100.00;100547.72;4984860;28;20485;-69
2023/08/25 07:30:15;;;;;;;1.90;1.45;;;;;;;27.37;100.00;100542.09;4986267;28;20050;-71
2023/08/25 07:32:41;;;;;;;1.52;1.23;;;;;;;27.22;100.00;100524.25;4979554;28;20649;-70
2023/08/25 07:35:07;;;;;;;1.52;1.40;;;;;;;26.99;100.00;100479.97;4982496;28;20033;-69
2023/08/25 07:37:33;;;;;;;1.27;1.05;;;;;;;27.36;100.00;100543.88;4986026;28;20050;-67
2023/08/25 07:39:58;;;;;;;1.60;1.50;;;;;;;27.07;100.00;100521.59;4984151;28;20669;-66
2023/08/25 07:42:24;;;;;;;2.13;1.25;;;;;;;27.00;100.00;100506.81;4981050;28;20049;-69
2023/08/25 07:44:49;;;;;;;1.50;1.05;;;;;;;27.23;100.00;100531.34;4986925;28;20101;-65
2023/08/25 07:47:15;;;;;;;1.90;1.63;;;;;;;26.74;100.00;100444.78;4973597;28;20031;-72
2023/08/25 07:49:41;;;;;;;3.35;0.52;;;;;;;27.40;100.00;100531.06;4983534;28;20034;-70
2023/08/25 07:52:06;;;;;;;3.55;1.77;;;;;;;27.23;100.00;100516.06;4988462;28;20761;-71
2023/08/25 07:54:32;;;;;;;3.15;2.95;;;;;;;26.91;100.00;100446.34;4985214;28;20038;-69
2023/08/25 07:56:58;;;;;;;0.70;0.70;;;;;;;27.09;100.00;100532.25;4980137;28;20122;-72
2023/08/25 07:59:24;;;;;;;0.63;0.55;;;;;;;26.68;100.00;100434.44;4985802;28;20128;-71
2023/08/25 08:01:50;;;;;;;8.07;3.67;;;;;;;26.90;100.00;100435.66;4979811;28;20117;-70
2023/08/25 08:04:16;;;;;;;0.75;0.75;;;;;;;27.51;100.00;100522.22;4980207;28;20873;-70
2023/08/25 08:06:41;;;;;;;2.42;1.40;;;;;;;27.21;100.00;100433.63;4978835;28;20050;-72
2023/08/25 08:09:07;;;;;;;2.08;1.55;;;;;;;27.85;100.00;100525.31;4985538;28;20058;-76
2023/08/25 08:11:35;;;;;;;1.38;1.27;;;;;;;27.51;100.00;100444.06;4988209;28;20049;-78
2023/08/25 08:14:02;;;;;;;2.28;1.50;;;;;;;28.12;100.00;100517.97;4979360;28;20081;-75
2023/08/25 08:16:28;;;;;;;1.15;1.05;;;;;;;28.16;100.00;100516.75;4973820;28;20050;-74
2023/08/25 08:18:54;;;;;;;1.20;1.10;;;;;;;27.91;100.00;100484.41;4981042;28;20050;-74
2023/08/25 08:21:19;;;;;;;1.75;1.60;;;;;;;28.30;100.00;100521.16;4978140;28;20079;-74
2023/08/25 08:23:45;;;;;;;1.63;1.52;;;;;;;28.31;100.00;100525.59;4979306;28;20046;-75
2023/08/25 08:26:11;;;;;;;0.80;0.80;;;;;;;27.86;100.00;100494.66;4980344;28;20038;-74
2023/08/25 08:28:36;;;;;;;2.28;2.08;;;;;;;27.79;100.00;100503.19;4984913;28;21298;-74
2023/08/25 08:31:05;;;;;;;1.38;1.27;;;;;;;28.02;100.00;100481.81;4963086;28;20047;-75
2023/08/25 08:33:31;;;;;;;1.58;1.05;;;;;;;28.36;100.00;100487.47;4975588;28;20521;-76
2023/08/25 08:35:57;;;;;;;4.32;1.90;;;;;;;28.48;100.00;100481.19;4990049;28;20082;-75
2023/08/25 08:38:22;;;;;;;0.60;0.60;;;;;;;28.37;100.00;100502.69;4989678;28;20068;-74
2023/08/25 08:40:49;;;;;;;3.08;2.05;;;;;;;27.73;100.00;100414.63;4986953;28;20038;-76
2023/08/25 08:43:18;;;;;;;2.80;2.60;;;;;;;27.89;99.88;100416.25;4986524;28;20473;-77
2023/08/25 08:45:45;;;;;;;0.88;0.88;;;;;;;28.08;98.12;100470.59;4978545;28;20047;-75
2023/08/25 08:48:13;;;;;;;0.50;0.50;;;;;;;27.93;100.00;100415.91;4982236;28;20052;-75
2023/08/25 08:50:39;;;;;;;0.43;0.43;;;;;;;28.04;99.20;100404.31;4989222;28;20130;-74
2023/08/25 08:53:05;;;;;;;1.23;1.20;;;;;;;28.45;97.15;100477.81;4993601;28;20409;-75
2023/08/25 08:55:36;;;;;;;5.20;2.75;;;;;;;28.20;97.67;100401.38;5014908;28;20117;-77
2023/08/25 08:58:03;;;;;;;1.45;1.27;;;;;;;28.74;96.71;100476.53;4983246;28;20061;-75
2023/08/25 09:00:30;;;;;;;1.67;1.55;;;;;;;28.82;99.22;100494.88;4988049;28;20074;-74
2023/08/25 09:02:58;;;;;;;0.80;0.60;;;;;;;28.62;96.87;100401.84;4988163;28;20054;-77
2023/08/25 09:05:29;;;;;;;1.55;1.40;;;;;;;29.21;93.30;100480.19;4988927;28;20045;-73
2023/08/25 09:08:06;;;;;;;1.85;0.98;;;;;;;29.32;91.93;100489.34;4988539;28;20038;-75
2023/08/25 09:10:31;;;;;;;0.90;0.85;;;;;;;29.41;90.05;100484.06;4988080;28;20078;-76
2023/08/25 09:12:57;;;;;;;3.53;0.93;;;;;;;29.00;93.29;100485.38;4980030;28;20110;-75
2023/08/25 09:15:30;;;;;;;1.30;1.20;;;;;;;29.00;92.89;100477.25;4988744;28;20054;-77
2023/08/25 09:18:07;;;;;;;1.40;1.33;;;;;;;29.09;90.48;100434.34;4988253;28;20086;-76
2023/08/25 09:20:40;;;;;;;0.47;0.47;;;;;;;29.09;87.24;100426.25;4980660;28;20050;-73
2023/08/25 09:23:08;;;;;;;1.27;1.17;;;;;;;28.90;90.32;100387.09;4975182;28;20073;-74
2023/08/25 09:25:33;;;;;;;0.50;0.50;;;;;;;29.53;87.23;100455.22;4974262;28;20042;-76
2023/08/25 09:28:03;;;;;;;2.22;2.03;;;;;;;29.21;84.37;100387.44;4990299;28;20108;-79
2023/08/25 09:30:37;;;;;;;0.55;0.50;;;;;;;28.74;86.26;100305.53;4986973;28;20039;-77
2023/08/25 09:33:07;;;;;;;0.60;0.60;;;;;;;29.19;82.40;100313.72;4983606;28;20133;-76
2023/08/25 09:35:33;;;;;;;1.45;1.35;;;;;;;30.00;81.61;100468.66;4989082;28;20108;-74
2023/08/25 09:37:59;;;;;;;3.08;2.38;;;;;;;29.54;81.96;100358.72;4987515;28;20023;-79
2023/08/25 09:40:25;;;;;;;1.17;1.08;;;;;;;29.73;82.71;100380.59;4982521;28;20109;-77
2023/08/25 09:43:00;;;;;;;2.05;1.92;;;;;;;30.75;80.01;100445.38;4987565;28;20046;-79
2023/08/25 09:45:31;;;;;;;1.23;1.02;;;;;;;30.91;75.87;100448.56;4983685;28;20157;-76
2023/08/25 09:48:13;;;;;;;1.50;1.33;;;;;;;30.67;76.55;100438.75;4982426;28;20065;-79
2023/08/25 09:50:40;;;;;;;1.88;0.65;;;;;;;31.44;73.28;100443.06;4980728;28;20050;-77
2023/08/25 09:53:07;;;;;;;6.82;2.15;;;;;;;30.87;69.79;100371.19;4976333;28;20117;-77
2023/08/25 09:55:36;;;;;;;1.27;1.17;;;;;;;30.86;71.28;100367.66;4981850;28;20412;-75
2023/08/25 09:58:06;;;;;;;0.98;0.93;;;;;;;32.18;68.24;100420.28;4974158;28;20050;-75
2023/08/25 10:00:38;;;;;;;1.70;1.60;;;;;;;31.63;67.22;100455.91;4977566;28;20562;-75
2023/08/25 10:03:10;;;;;;;;;;;;;;;32.14;66.43;100443.25;4980196;28;20050;-76
2023/08/25 10:05:37;;;;;;;1.33;1.23;;;;;;;32.38;65.81;100437.44;5007740;28;19926;-76
2023/08/25 10:08:04;;;;;;;1.42;1.33;;;;;;;31.98;62.84;100348.75;4991677;28;20051;-76
2023/08/25 10:10:32;;;;;;;0.98;0.80;;;;;;;31.80;61.70;100302.44;4975909;28;20466;-76
2023/08/25 10:13:00;;;;;;;1.25;1.15;;;;;;;33.07;60.73;100408.50;4971243;28;20133;-75
2023/08/25 10:15:30;;;;;;;1.45;1.35;;;;;;;32.73;59.76;100417.94;4974351;28;20065;-77
2023/08/25 10:18:07;;;;;;;2.92;2.65;;;;;;;33.58;59.29;100401.81;4971053;28;20065;-76
2023/08/25 10:20:35;;;;;;;1.85;1.75;;;;;;;34.12;57.67;100412.88;4972913;28;20129;-77
2023/08/25 10:23:00;;;;;;;1.23;1.10;;;;;;;34.43;55.41;100406.06;4974190;28;20058;-74
2023/08/25 10:25:30;;;;;;;5.47;2.00;;;;;;;34.31;55.01;100332.88;4982995;28;20490;-78
2023/08/25 10:28:01;;;;;;;0.82;0.80;;;;;;;34.40;54.06;100400.06;4976545;28;20101;-75
2023/08/25 10:30:27;;;;;;;4.78;2.28;;;;;;;34.51;54.21;100396.25;4980138;28;20569;-80
2023/08/25 10:32:58;;;;;;;1.63;1.50;;;;;;;34.28;54.48;100334.06;5017107;28;20487;-83
2023/08/25 10:35:44;;;;;;;1.60;1.40;;;;;;;35.08;51.94;100413.97;4979625;28;20039;-76
2023/08/25 10:38:19;;;;;;;1.38;1.27;;;;;;;34.10;52.79;100402.13;4979637;28;20193;-75
2023/08/25 10:40:50;;;;;;;1.42;1.25;;;;;;;35.13;53.72;100397.16;4974697;28;20035;-77
2023/08/25 10:43:28;;;;;;;1.33;1.13;;;;;;;33.38;53.56;100319.34;4979609;28;20146;-78
2023/08/25 10:45:54;;;;;;;2.65;2.45;;;;;;;35.03;52.38;100399.97;4972951;28;20054;-75
2023/08/25 10:48:20;;;;;;;1.05;0.95;;;;;;;34.32;52.28;100329.97;5009529;28;20093;-76
2023/08/25 10:50:45;;;;;;;2.97;2.67;;;;;;;34.29;52.90;100364.88;4968960;28;20055;-84
2023/08/25 10:53:37;;;;;;;1.45;1.17;;;;;;;33.85;53.01;100400.94;4974804;28;20487;-74
2023/08/25 10:56:23;;;;;;;1.35;1.25;;;;;;;33.81;53.58;100389.50;4973846;28;20050;-79
2023/08/25 10:58:59;;;;;;;1.02;0.93;;;;;;;33.74;53.59;100393.84;4974629;28;20053;-75
2023/08/25 11:01:52;;;;;;;1.65;1.35;;;;;;;35.06;51.43;100341.50;4972958;28;20054;-75
2023/08/25 11:04:29;;;;;;;3.70;2.03;;;;;;;35.14;51.26;100392.56;4969825;28;20050;-77
2023/08/25 11:06:59;;;;;;;2.63;2.42;;;;;;;34.57;51.29;100387.44;4970133;28;20049;-74
2023/08/25 11:09:24;;;;;;;0.98;0.90;;;;;;;34.12;51.41;100388.38;4972996;28;20051;-75
2023/08/25 11:12:16;;;;;;;1.17;0.88;;;;;;;34.16;51.56;100385.19;4974532;28;20062;-75
2023/08/25 11:14:44;;;;;;;0.68;0.68;;;;;;;34.28;52.90;100361.28;4974354;28;20097;-75
2023/08/25 11:17:10;;;;;;;0.30;0.30;;;;;;;33.33;52.76;100298.03;4973975;28;20077;-82
2023/08/25 11:19:38;;;;;;;2.97;2.17;;;;;;;34.72;51.89;100327.78;4972365;28;20208;-74